Terminal Aerodrome Forecast
Issued by NWS

Home | Current Version | Previous Version | Text Only | Print | Product List | Glossary On
Versions: 1 2 3 4 5 6 7 8 9 10 11 12 13
869
FTAK31 PAJN 151749 RRA
TAFAWG
TAF
PAWG 151749Z 1518/1618 14006KT P6SM VCSH SCT025 OVC035
      TEMPO 1518/1521 -SHRA SCT012 OVC025
     FM160500 14009KT P6SM OVC050
     FM161300 13018G25KT 4SM RA BR BKN015 OVC025
      AMD LTD TO CLD VIS AND WIND 1606/1615=

USA.gov is the U.S. government's official web portal to all federal, state and local government web resources and services.